Time;durP1;ratioP1;P1;durP2;ratioP2;P2;SDS_P1;SDS_P2;PMS_P1;PMS_P2;Temp;Humidity;BMP_temperature;BMP_pressure;BME280_temperature;BME280_humidity;BME280_pressure;Samples;Min_cycle;Max_cycle;Signal;HPM_P1;HPM_P2
2021/11/26 00:01:21;;;;;;;25.35;7.65;;;3.90;99.90;;;;;;5017637;23;20015;-77
2021/11/26 00:03:22;;;;;;;18.45;8.10;;;3.90;99.90;;;;;;5015953;23;20019;-77
2021/11/26 00:05:23;;;;;;;22.23;7.90;;;3.90;99.90;;;;;;5015741;23;20336;-79
2021/11/26 00:07:23;;;;;;;16.73;8.10;;;3.90;99.90;;;;;;5016309;23;20050;-78
2021/11/26 00:09:24;;;;;;;24.77;9.60;;;3.90;99.90;;;;;;5016868;23;20077;-78
2021/11/26 00:11:25;;;;;;;17.10;8.65;;;4.00;99.90;;;;;;5018003;23;20022;-78
2021/11/26 00:13:30;;;;;;;16.30;8.25;;;4.00;99.90;;;;;;5017047;23;20022;-78
2021/11/26 00:17:34;;;;;;;17.23;7.60;;;4.00;99.90;;;;;;5019008;23;20090;-79
2021/11/26 00:19:35;;;;;;;18.58;7.55;;;4.00;99.90;;;;;;5016676;23;20007;-79
2021/11/26 00:21:38;;;;;;;15.52;7.25;;;4.00;99.90;;;;;;5016418;23;20284;-78
2021/11/26 00:23:39;;;;;;;21.10;7.22;;;4.00;99.90;;;;;;5018619;23;20113;-78
2021/11/26 00:25:40;;;;;;;13.32;7.07;;;3.90;99.90;;;;;;5015991;23;20402;-79
2021/11/26 00:27:42;;;;;;;18.08;7.43;;;3.90;99.90;;;;;;5016600;23;20724;-78
2021/11/26 00:29:44;;;;;;;15.98;6.80;;;3.90;99.90;;;;;;5018486;23;20031;-78
2021/11/26 00:31:45;;;;;;;15.23;7.10;;;4.00;99.90;;;;;;5018481;23;20015;-79
2021/11/26 00:33:46;;;;;;;18.63;7.50;;;3.90;99.90;;;;;;5018476;23;20010;-81
2021/11/26 00:35:46;;;;;;;18.45;7.10;;;4.00;99.90;;;;;;5018360;23;20034;-79
2021/11/26 00:37:48;;;;;;;14.85;7.05;;;4.00;99.90;;;;;;5018771;23;20063;-80
2021/11/26 00:39:49;;;;;;;16.85;7.57;;;4.10;99.90;;;;;;5015699;23;20045;-78
2021/11/26 00:41:49;;;;;;;17.90;6.63;;;4.10;99.90;;;;;;5016493;23;20420;-79
2021/11/26 00:43:51;;;;;;;13.13;6.50;;;4.10;99.90;;;;;;5016508;23;20093;-78
2021/11/26 00:45:52;;;;;;;18.48;7.97;;;4.20;99.90;;;;;;5017991;23;20026;-79
2021/11/26 00:47:52;;;;;;;16.70;7.75;;;4.30;99.90;;;;;;5018751;23;20019;-80
2021/11/26 00:49:53;;;;;;;17.08;6.72;;;4.20;99.90;;;;;;5016414;23;20502;-79
2021/11/26 00:51:54;;;;;;;14.63;7.32;;;4.30;99.90;;;;;;5018602;23;20026;-79
2021/11/26 00:53:54;;;;;;;12.98;6.68;;;4.20;99.90;;;;;;5016541;23;20471;-78
2021/11/26 00:55:56;;;;;;;13.40;5.68;;;4.30;99.90;;;;;;5018350;23;20062;-80
2021/11/26 00:57:57;;;;;;;13.90;6.93;;;4.30;99.90;;;;;;5016949;23;20069;-79
2021/11/26 00:59:58;;;;;;;11.48;5.70;;;4.30;99.90;;;;;;5016084;23;20051;-78
2021/11/26 01:01:58;;;;;;;12.90;4.38;;;4.30;99.90;;;;;;5016725;23;20344;-81
2021/11/26 01:03:59;;;;;;;13.07;5.13;;;4.30;99.90;;;;;;4992669;23;20017;-79
2021/11/26 01:06:00;;;;;;;8.98;5.03;;;4.30;99.90;;;;;;5018642;23;20006;-80
2021/11/26 01:08:00;;;;;;;9.00;4.32;;;4.20;99.90;;;;;;5015778;23;20022;-81
2021/11/26 01:10:04;;;;;;;8.88;4.00;;;4.30;99.90;;;;;;5017645;23;20082;-78
2021/11/26 01:12:06;;;;;;;6.18;3.70;;;4.40;99.90;;;;;;5016761;23;20014;-79
2021/11/26 01:14:07;;;;;;;6.63;4.30;;;4.50;99.90;;;;;;5016289;23;20014;-78
2021/11/26 01:16:08;;;;;;;8.57;4.10;;;4.40;99.90;;;;;;5016081;23;20564;-79
2021/11/26 01:18:10;;;;;;;8.95;3.85;;;4.40;99.90;;;;;;5017401;23;20010;-78
2021/11/26 01:20:13;;;;;;;5.80;3.28;;;4.40;99.90;;;;;;5015313;23;20062;-79
2021/11/26 01:22:15;;;;;;;4.60;3.58;;;4.40;99.90;;;;;;5016835;23;20015;-78
2021/11/26 01:24:16;;;;;;;4.65;3.63;;;4.30;99.90;;;;;;5014514;23;20086;-80
2021/11/26 01:26:17;;;;;;;8.32;3.50;;;4.30;99.90;;;;;;5014659;23;20329;-79
2021/11/26 01:28:18;;;;;;;6.30;3.38;;;4.30;99.90;;;;;;5015868;23;20022;-78
2021/11/26 01:30:29;;;;;;;7.15;4.32;;;4.20;99.90;;;;;;5015927;23;20426;-79
2021/11/26 01:32:30;;;;;;;8.05;4.40;;;4.20;99.90;;;;;;5014446;23;20067;-79
2021/11/26 01:34:31;;;;;;;7.13;3.50;;;4.20;99.90;;;;;;5016445;23;20093;-79
2021/11/26 01:36:33;;;;;;;4.97;3.33;;;4.20;99.90;;;;;;5017659;23;20399;-78
2021/11/26 01:38:34;;;;;;;6.95;3.50;;;4.20;99.90;;;;;;5016537;23;20022;-79
2021/11/26 01:40:37;;;;;;;6.57;3.38;;;4.20;99.90;;;;;;5018102;23;20339;-79
2021/11/26 01:42:39;;;;;;;4.43;3.45;;;4.20;99.90;;;;;;5015036;23;20049;-78
2021/11/26 01:44:40;;;;;;;8.82;3.63;;;4.20;99.90;;;;;;5016220;23;20038;-79
2021/11/26 01:46:43;;;;;;;9.70;3.65;;;4.20;99.90;;;;;;5017043;23;20018;-78
2021/11/26 01:48:44;;;;;;;5.97;3.70;;;4.20;99.90;;;;;;5014749;23;20015;-79
2021/11/26 01:50:46;;;;;;;10.52;4.65;;;4.20;99.90;;;;;;5017406;23;20504;-80
2021/11/26 01:52:47;;;;;;;8.90;4.22;;;4.20;99.90;;;;;;5016832;23;20014;-80
2021/11/26 01:54:48;;;;;;;9.98;3.63;;;4.20;99.90;;;;;;5015157;23;20471;-78
2021/11/26 01:56:51;;;;;;;7.85;3.63;;;4.30;99.90;;;;;;5017485;23;20021;-77
2021/11/26 01:58:51;;;;;;;7.68;3.22;;;4.40;99.90;;;;;;5017658;23;20015;-79
2021/11/26 02:00:54;;;;;;;6.25;3.53;;;4.40;99.90;;;;;;5016133;23;20515;-78
2021/11/26 02:02:56;;;;;;;8.23;3.23;;;4.50;99.90;;;;;;5014160;23;20018;-80
2021/11/26 02:04:56;;;;;;;10.23;4.47;;;4.50;99.90;;;;;;5018062;23;20639;-80
2021/11/26 02:06:57;;;;;;;8.73;4.38;;;4.50;99.90;;;;;;5017615;23;20094;-81
2021/11/26 02:08:58;;;;;;;11.10;5.07;;;4.40;99.90;;;;;;5016038;23;20404;-80
2021/11/26 02:10:59;;;;;;;9.52;3.60;;;4.40;99.90;;;;;;5016344;23;20007;-81
2021/11/26 02:13:00;;;;;;;11.23;4.30;;;4.40;99.90;;;;;;5017459;23;20018;-80
2021/11/26 02:15:01;;;;;;;11.45;5.57;;;4.30;99.90;;;;;;5016006;23;20018;-79
2021/11/26 02:17:02;;;;;;;9.52;5.13;;;4.30;99.90;;;;;;5017142;23;20083;-80
2021/11/26 02:19:02;;;;;;;11.25;5.90;;;4.30;99.90;;;;;;5016031;23;20011;-79
2021/11/26 02:21:03;;;;;;;11.95;6.03;;;4.30;99.90;;;;;;5017412;23;20013;-80
2021/11/26 02:23:04;;;;;;;11.18;6.28;;;4.30;99.90;;;;;;5016016;23;20007;-80
2021/11/26 02:25:07;;;;;;;17.13;7.65;;;4.20;99.90;;;;;;5015950;23;20022;-80
2021/11/26 02:27:08;;;;;;;11.95;7.10;;;4.30;99.90;;;;;;5015080;23;20468;-78
2021/11/26 02:29:10;;;;;;;11.90;6.95;;;4.30;99.90;;;;;;5017858;23;20105;-79
2021/11/26 02:31:10;;;;;;;16.52;7.03;;;4.30;99.90;;;;;;5017587;23;20055;-79
2021/11/26 02:33:14;;;;;;;12.93;8.02;;;4.30;99.90;;;;;;5015925;23;20367;-79
2021/11/26 02:35:15;;;;;;;11.93;7.85;;;4.30;99.90;;;;;;5015707;23;20003;-79
2021/11/26 02:37:15;;;;;;;22.85;8.27;;;4.30;99.90;;;;;;5017581;23;20018;-78
2021/11/26 02:39:17;;;;;;;10.98;7.32;;;4.20;99.90;;;;;;5017598;23;20105;-79
2021/11/26 02:41:18;;;;;;;11.80;8.10;;;4.20;99.90;;;;;;5015181;23;20086;-79
2021/11/26 02:43:19;;;;;;;11.57;8.23;;;4.20;99.90;;;;;;5017716;23;20015;-79
2021/11/26 02:45:21;;;;;;;12.35;8.65;;;4.20;99.90;;;;;;5015896;23;20015;-79
2021/11/26 02:47:22;;;;;;;16.38;8.60;;;4.20;99.90;;;;;;5015649;23;20078;-79
2021/11/26 02:49:23;;;;;;;16.67;8.75;;;4.10;99.90;;;;;;5015930;23;20118;-79
2021/11/26 02:51:24;;;;;;;16.42;8.25;;;4.00;99.90;;;;;;5017264;23;20091;-79
2021/11/26 02:53:25;;;;;;;14.00;7.68;;;4.00;99.90;;;;;;5015609;23;20015;-79
2021/11/26 02:55:29;;;;;;;16.60;8.13;;;4.00;99.90;;;;;;5017503;23;20086;-78
2021/11/26 02:57:30;;;;;;;14.43;8.02;;;3.90;99.90;;;;;;5015709;23;20007;-78
2021/11/26 02:59:34;;;;;;;14.55;7.53;;;3.90;99.90;;;;;;5017300;23;20476;-78
2021/11/26 03:01:35;;;;;;;12.30;7.00;;;3.90;99.90;;;;;;5015813;23;20014;-79
2021/11/26 03:03:36;;;;;;;14.30;7.88;;;4.00;99.90;;;;;;5017771;23;20320;-79
2021/11/26 03:05:37;;;;;;;14.13;8.75;;;4.00;99.90;;;;;;5017061;23;20037;-79
2021/11/26 03:07:38;;;;;;;18.13;8.27;;;3.90;99.90;;;;;;5017134;23;20034;-79
2021/11/26 03:09:40;;;;;;;13.18;7.25;;;3.90;99.90;;;;;;5017528;23;20011;-79
2021/11/26 03:11:41;;;;;;;18.45;8.73;;;3.90;99.90;;;;;;5015405;23;20030;-79
2021/11/26 03:13:43;;;;;;;14.63;8.25;;;4.00;99.90;;;;;;5017632;23;20007;-79
2021/11/26 03:15:44;;;;;;;16.58;8.07;;;4.10;99.90;;;;;;5017257;23;20432;-78
2021/11/26 03:17:45;;;;;;;17.15;8.50;;;4.10;99.90;;;;;;5015895;23;20022;-78
2021/11/26 03:19:46;;;;;;;12.43;7.13;;;4.10;99.90;;;;;;5016514;23;20106;-79
2021/11/26 03:21:46;;;;;;;14.63;8.30;;;4.10;99.90;;;;;;5014897;23;20007;-78
2021/11/26 03:23:47;;;;;;;13.23;8.18;;;4.10;99.90;;;;;;4990952;23;20007;-79
2021/11/26 03:25:48;;;;;;;14.98;7.97;;;4.00;99.90;;;;;;5016568;23;20022;-79
2021/11/26 03:27:49;;;;;;;14.77;6.78;;;4.00;99.90;;;;;;5015857;23;20450;-79
2021/11/26 03:29:49;;;;;;;12.68;7.85;;;4.00;99.90;;;;;;4991304;23;20397;-78
2021/11/26 03:31:50;;;;;;;12.88;7.15;;;4.10;99.90;;;;;;5018972;23;20010;-80
2021/11/26 03:33:51;;;;;;;10.90;7.45;;;4.10;99.90;;;;;;5016901;23;20414;-78
2021/11/26 03:35:51;;;;;;;11.75;6.75;;;4.10;99.90;;;;;;5016942;23;20383;-77
2021/11/26 03:37:53;;;;;;;15.38;6.88;;;4.10;99.90;;;;;;5019036;23;20450;-78
2021/11/26 03:39:54;;;;;;;12.35;6.82;;;4.20;99.90;;;;;;5018784;23;20037;-78
2021/11/26 03:41:55;;;;;;;10.98;6.32;;;4.10;99.90;;;;;;5018649;23;20351;-78
2021/11/26 03:43:55;;;;;;;7.55;3.95;;;4.20;99.90;;;;;;5016023;23;20010;-77
2021/11/26 03:45:56;;;;;;;6.78;3.90;;;4.30;99.90;;;;;;5017301;23;20883;-80
2021/11/26 03:47:57;;;;;;;10.55;5.22;;;4.40;99.90;;;;;;5017037;23;20023;-80
2021/11/26 03:49:59;;;;;;;7.88;4.93;;;4.30;99.90;;;;;;5018820;23;20007;-77
2021/11/26 03:51:59;;;;;;;5.43;4.70;;;4.30;99.90;;;;;;5016921;23;20034;-80
2021/11/26 03:54:00;;;;;;;7.75;4.57;;;4.30;99.90;;;;;;5018673;23;20007;-79
2021/11/26 03:56:00;;;;;;;10.18;4.10;;;4.30;99.90;;;;;;5017565;23;20011;-79
2021/11/26 03:58:01;;;;;;;7.35;4.75;;;4.30;99.90;;;;;;5018915;23;20014;-78
2021/11/26 04:00:05;;;;;;;11.48;4.55;;;4.30;99.90;;;;;;5016311;23;20011;-79
2021/11/26 04:02:06;;;;;;;9.45;4.85;;;4.30;99.90;;;;;;5018810;23;20007;-79
2021/11/26 04:04:06;;;;;;;9.63;3.90;;;4.30;99.90;;;;;;5017035;23;20440;-79
2021/11/26 04:06:07;;;;;;;4.90;3.45;;;4.40;99.90;;;;;;5018954;23;20319;-78
2021/11/26 04:08:08;;;;;;;6.28;3.28;;;4.40;99.90;;;;;;5018531;23;20042;-79
2021/11/26 04:10:10;;;;;;;6.93;3.33;;;4.40;99.90;;;;;;5017187;23;20067;-80
2021/11/26 04:12:11;;;;;;;8.65;4.50;;;4.40;99.90;;;;;;5018239;23;20042;-79
2021/11/26 04:14:11;;;;;;;6.70;3.60;;;4.40;99.90;;;;;;5017052;23;20022;-78
2021/11/26 04:16:13;;;;;;;5.20;3.53;;;4.40;99.90;;;;;;5016802;23;20017;-79
2021/11/26 04:18:14;;;;;;;5.30;3.65;;;4.40;99.90;;;;;;5016771;23;20336;-78
2021/11/26 04:20:18;;;;;;;13.65;4.35;;;4.30;99.90;;;;;;5019042;23;20007;-78
2021/11/26 04:22:19;;;;;;;;;;;4.40;99.90;;;;;;5018771;23;20014;-79
2021/11/26 04:24:19;;;;;;;8.20;3.33;;;4.50;99.90;;;;;;5016937;23;19912;-78
2021/11/26 04:26:20;;;;;;;8.60;3.53;;;4.50;99.90;;;;;;5018702;23;20042;-78
2021/11/26 04:28:20;;;;;;;10.55;3.70;;;4.50;99.90;;;;;;5018595;23;20391;-79
2021/11/26 04:30:23;;;;;;;8.57;3.45;;;4.40;99.90;;;;;;5018915;23;20074;-78
2021/11/26 04:32:26;;;;;;;6.05;3.45;;;4.40;99.90;;;;;;5018271;23;20014;-79
2021/11/26 04:34:27;;;;;;;5.07;3.75;;;4.40;99.90;;;;;;5017573;23;20011;-79
2021/11/26 04:36:28;;;;;;;9.82;3.33;;;4.30;99.90;;;;;;5018227;23;20011;-79
2021/11/26 04:38:29;;;;;;;3.90;3.45;;;4.30;99.90;;;;;;5016613;23;20035;-79
2021/11/26 04:40:30;;;;;;;9.25;3.53;;;4.20;99.90;;;;;;5018742;23;20011;-79
2021/11/26 04:42:31;;;;;;;10.32;3.67;;;4.20;99.90;;;;;;5016130;23;20110;-78
2021/11/26 04:44:32;;;;;;;7.80;3.13;;;4.10;99.90;;;;;;5016697;23;20018;-78
2021/11/26 04:46:33;;;;;;;7.72;4.40;;;4.10;99.90;;;;;;5018299;23;20344;-78
2021/11/26 04:48:33;;;;;;;6.30;3.25;;;4.20;99.90;;;;;;5016712;23;20152;-79
2021/11/26 04:50:34;;;;;;;8.75;3.38;;;4.10;99.90;;;;;;5018435;23;20007;-80
2021/11/26 04:52:35;;;;;;;10.95;3.70;;;4.10;99.90;;;;;;5016705;23;20015;-79
2021/11/26 04:54:36;;;;;;;7.05;2.97;;;4.10;99.90;;;;;;5018220;23;20077;-79
2021/11/26 04:56:36;;;;;;;5.80;2.78;;;4.00;99.90;;;;;;5016169;23;20452;-78
2021/11/26 04:58:38;;;;;;;4.22;2.90;;;4.00;99.90;;;;;;5016976;23;20028;-78
2021/11/26 05:00:40;;;;;;;7.30;2.92;;;4.00;99.90;;;;;;5016339;23;20014;-78
2021/11/26 05:02:42;;;;;;;9.98;3.20;;;3.90;99.90;;;;;;5018649;23;20011;-78
2021/11/26 05:04:42;;;;;;;6.60;3.17;;;3.80;99.90;;;;;;5016438;23;20027;-78
2021/11/26 05:06:45;;;;;;;6.97;3.60;;;3.80;99.90;;;;;;5018141;23;20078;-78
2021/11/26 05:08:46;;;;;;;5.13;2.60;;;3.80;99.90;;;;;;5016263;23;20062;-78
2021/11/26 05:10:52;;;;;;;6.68;2.70;;;3.80;99.90;;;;;;5016032;23;20014;-78
2021/11/26 05:12:58;;;;;;;5.47;2.90;;;3.80;99.90;;;;;;5017035;23;20482;-79
2021/11/26 05:14:58;;;;;;;4.70;2.55;;;3.80;99.90;;;;;;5016149;23;20011;-78
2021/11/26 05:16:59;;;;;;;3.00;2.60;;;3.70;99.90;;;;;;5018456;23;20085;-79
2021/11/26 05:19:00;;;;;;;8.20;2.60;;;3.90;99.90;;;;;;5016507;23;20078;-79
2021/11/26 05:21:01;;;;;;;4.60;3.08;;;3.90;99.90;;;;;;5017308;23;20035;-79
2021/11/26 05:23:02;;;;;;;7.25;2.97;;;3.80;99.90;;;;;;5016774;23;20015;-78
2021/11/26 05:25:03;;;;;;;3.90;2.67;;;3.80;99.90;;;;;;5015826;23;20007;-78
2021/11/26 05:27:05;;;;;;;3.88;2.97;;;3.80;99.90;;;;;;5018060;23;20010;-78
2021/11/26 05:29:08;;;;;;;6.85;2.92;;;3.80;99.90;;;;;;5015821;23;20003;-77
2021/11/26 05:31:09;;;;;;;;;;;3.80;99.90;;;;;;5017060;23;20022;-77
2021/11/26 05:33:10;;;;;;;3.83;3.10;;;3.80;99.90;;;;;;5018312;23;19910;-78
2021/11/26 05:35:12;;;;;;;10.00;3.28;;;3.80;99.90;;;;;;5017904;23;20454;-78
2021/11/26 05:37:13;;;;;;;9.35;3.97;;;3.90;99.90;;;;;;5016614;23;20007;-78
2021/11/26 05:39:14;;;;;;;7.82;3.70;;;3.80;99.90;;;;;;5017552;23;20070;-78
2021/11/26 05:41:14;;;;;;;7.18;3.40;;;3.70;99.90;;;;;;5015811;23;20169;-79
2021/11/26 05:43:16;;;;;;;7.85;3.80;;;3.70;99.90;;;;;;5018248;23;20019;-78
2021/11/26 05:45:18;;;;;;;12.57;3.53;;;3.70;99.90;;;;;;5015448;23;20039;-78
2021/11/26 05:47:19;;;;;;;5.80;3.30;;;3.70;99.90;;;;;;5018071;23;20065;-78
2021/11/26 05:49:19;;;;;;;9.25;4.10;;;3.80;99.90;;;;;;5018149;23;20015;-77
2021/11/26 05:51:20;;;;;;;7.43;4.47;;;3.80;99.90;;;;;;5018158;23;20030;-78
2021/11/26 05:53:21;;;;;;;12.10;4.53;;;3.90;99.90;;;;;;5015570;23;20153;-78
2021/11/26 05:55:25;;;;;;;5.88;3.85;;;3.90;99.90;;;;;;5017979;23;20047;-79
2021/11/26 05:57:26;;;;;;;7.13;4.32;;;3.90;99.90;;;;;;5015767;23;20062;-79
2021/11/26 05:59:26;;;;;;;11.32;5.00;;;4.00;99.90;;;;;;5015068;23;20018;-78
2021/11/26 06:01:27;;;;;;;12.75;4.50;;;4.00;99.90;;;;;;5015994;23;20523;-79
2021/11/26 06:03:28;;;;;;;15.23;5.63;;;3.90;99.90;;;;;;5017003;23;20010;-78
2021/11/26 06:05:29;;;;;;;13.88;5.45;;;3.90;99.90;;;;;;5017328;23;20011;-80
2021/11/26 06:07:30;;;;;;;12.60;5.32;;;3.90;99.90;;;;;;5015725;23;20018;-79
2021/11/26 06:09:31;;;;;;;13.75;5.90;;;4.00;99.90;;;;;;5015724;23;20365;-79
2021/11/26 06:11:31;;;;;;;10.23;5.85;;;4.10;99.90;;;;;;5015413;23;20023;-79
2021/11/26 06:13:32;;;;;;;14.18;6.53;;;4.00;99.90;;;;;;5016822;23;20007;-78
2021/11/26 06:15:33;;;;;;;11.35;5.60;;;3.90;99.90;;;;;;5017627;23;20045;-80
2021/11/26 06:17:34;;;;;;;13.88;5.95;;;3.90;99.90;;;;;;5016952;23;20043;-77
2021/11/26 06:19:34;;;;;;;11.13;5.90;;;4.00;99.90;;;;;;5015843;23;20595;-78
2021/11/26 06:21:35;;;;;;;16.75;7.15;;;4.10;99.90;;;;;;5017169;23;20010;-79
2021/11/26 06:23:36;;;;;;;9.40;5.47;;;4.10;99.90;;;;;;5017404;23;20049;-78
2021/11/26 06:25:37;;;;;;;13.98;6.25;;;4.00;99.90;;;;;;5016352;23;20336;-78
2021/11/26 06:27:38;;;;;;;14.13;7.00;;;4.00;99.90;;;;;;5017770;23;20015;-78
2021/11/26 06:29:38;;;;;;;13.50;6.95;;;4.10;99.90;;;;;;5016368;23;19999;-78
2021/11/26 06:31:40;;;;;;;17.98;7.40;;;4.00;99.90;;;;;;5017061;23;20102;-78
2021/11/26 06:33:41;;;;;;;12.55;5.45;;;4.00;99.90;;;;;;5017942;23;20003;-76
2021/11/26 06:35:41;;;;;;;16.08;6.07;;;4.00;99.90;;;;;;5017408;23;20031;-80
2021/11/26 06:37:43;;;;;;;14.25;6.38;;;4.00;99.90;;;;;;5016896;23;20010;-79
2021/11/26 06:39:44;;;;;;;18.38;7.03;;;4.10;99.90;;;;;;5015625;23;20007;-79
2021/11/26 06:41:44;;;;;;;14.60;6.53;;;4.10;99.90;;;;;;5016347;23;20446;-78
2021/11/26 06:43:45;;;;;;;10.70;6.28;;;4.10;99.90;;;;;;5017111;23;20099;-79
2021/11/26 06:45:45;;;;;;;20.33;6.82;;;4.10;99.90;;;;;;5017319;23;20039;-78
2021/11/26 06:47:48;;;;;;;14.30;6.15;;;4.10;99.90;;;;;;5015611;23;20019;-77
2021/11/26 06:49:49;;;;;;;18.02;7.80;;;4.00;99.90;;;;;;5017995;23;20011;-78
2021/11/26 06:51:49;;;;;;;17.25;7.15;;;4.00;99.90;;;;;;5017125;23;20014;-78
2021/11/26 06:53:50;;;;;;;19.05;6.30;;;3.90;99.90;;;;;;5015447;23;20059;-79
2021/11/26 06:55:51;;;;;;;20.00;9.68;;;3.90;99.90;;;;;;5016982;23;20424;-79
2021/11/26 06:57:52;;;;;;;12.88;6.30;;;3.90;99.90;;;;;;5017850;23;20034;-78
2021/11/26 06:59:53;;;;;;;13.10;6.45;;;3.90;99.90;;;;;;5017707;23;20034;-76
2021/11/26 07:01:54;;;;;;;18.70;6.10;;;3.80;99.90;;;;;;5016935;23;20015;-76
2021/11/26 07:03:55;;;;;;;19.27;7.32;;;3.80;99.90;;;;;;5016921;23;20022;-76
2021/11/26 07:05:56;;;;;;;15.13;5.50;;;3.80;99.90;;;;;;5016005;23;20007;-76
2021/11/26 07:07:56;;;;;;;13.32;6.60;;;3.90;99.90;;;;;;5019382;23;20078;-76
2021/11/26 07:09:57;;;;;;;22.55;6.40;;;4.00;99.90;;;;;;5016674;23;20763;-75
2021/11/26 07:11:58;;;;;;;17.75;5.38;;;3.90;99.90;;;;;;5018509;23;20007;-76
2021/11/26 07:13:59;;;;;;;15.43;4.82;;;3.90;99.90;;;;;;5018994;23;20007;-76
2021/11/26 07:15:59;;;;;;;23.35;5.90;;;4.00;99.90;;;;;;5018788;23;20023;-77
2021/11/26 07:18:00;;;;;;;13.30;4.65;;;4.00;99.90;;;;;;5017585;23;20030;-77
2021/11/26 07:20:02;;;;;;;20.65;6.43;;;3.90;99.90;;;;;;5017066;23;20036;-77
2021/11/26 07:22:04;;;;;;;17.65;6.60;;;3.90;99.90;;;;;;5018265;23;20010;-75
2021/11/26 07:24:05;;;;;;;23.00;6.50;;;3.90;99.90;;;;;;5017608;23;20007;-75
2021/11/26 07:26:05;;;;;;;16.20;6.03;;;3.90;99.90;;;;;;5015688;23;20435;-75
2021/11/26 07:28:06;;;;;;;20.25;6.22;;;3.90;99.90;;;;;;5016812;23;20011;-77
2021/11/26 07:30:09;;;;;;;25.55;7.32;;;3.90;99.90;;;;;;5016873;23;20144;-76
2021/11/26 07:32:10;;;;;;;17.70;6.03;;;3.90;99.90;;;;;;5017432;23;20011;-77
2021/11/26 07:34:10;;;;;;;13.65;4.82;;;4.00;99.90;;;;;;5016849;23;20372;-77
2021/11/26 07:36:11;;;;;;;14.57;5.28;;;4.10;99.90;;;;;;5014119;23;20049;-77
2021/11/26 07:38:12;;;;;;;16.73;5.18;;;4.10;99.90;;;;;;5016846;23;20735;-77
2021/11/26 07:40:15;;;;;;;16.48;5.45;;;4.10;99.90;;;;;;5018388;23;20153;-76
2021/11/26 07:42:16;;;;;;;22.58;6.50;;;4.10;99.90;;;;;;5018251;23;20014;-76
2021/11/26 07:44:17;;;;;;;17.85;6.18;;;4.00;99.90;;;;;;5016423;23;20026;-76
2021/11/26 07:46:17;;;;;;;13.85;5.32;;;4.00;99.90;;;;;;5016241;23;20023;-77
2021/11/26 07:48:18;;;;;;;16.70;6.40;;;4.10;99.90;;;;;;5017597;23;20356;-77
2021/11/26 07:50:19;;;;;;;20.80;6.05;;;4.10;99.90;;;;;;5018480;23;20331;-74
2021/11/26 07:52:20;;;;;;;18.52;6.65;;;4.00;99.90;;;;;;5017860;23;20043;-76
2021/11/26 07:54:21;;;;;;;23.02;7.45;;;4.10;99.90;;;;;;5016718;23;20015;-75
2021/11/26 07:56:22;;;;;;;24.05;6.28;;;4.20;99.90;;;;;;5018187;23;20056;-76
2021/11/26 07:58:22;;;;;;;22.80;7.28;;;4.20;99.90;;;;;;5017783;23;20034;-76
2021/11/26 08:00:23;;;;;;;8.73;4.35;;;4.30;99.90;;;;;;5018414;23;20006;-75
2021/11/26 08:02:24;;;;;;;18.75;5.65;;;4.30;99.90;;;;;;5018097;23;20038;-76
2021/11/26 08:04:24;;;;;;;22.20;6.72;;;4.40;99.90;;;;;;5018514;23;20022;-75
2021/11/26 08:06:25;;;;;;;20.65;6.85;;;4.40;99.90;;;;;;5016149;23;20014;-76
2021/11/26 08:08:26;;;;;;;17.92;7.32;;;4.40;99.90;;;;;;5017728;23;20015;-75
2021/11/26 08:10:27;;;;;;;14.02;5.75;;;4.40;99.90;;;;;;5016571;23;20034;-74
2021/11/26 08:12:28;;;;;;;18.58;6.68;;;4.40;99.90;;;;;;5015982;23;20015;-75
2021/11/26 08:14:29;;;;;;;19.10;8.75;;;4.40;99.90;;;;;;5017030;23;20455;-75
2021/11/26 08:16:29;;;;;;;13.98;6.43;;;4.30;99.90;;;;;;5015387;23;20007;-75
2021/11/26 08:18:31;;;;;;;16.70;6.50;;;4.40;99.90;;;;;;5017969;23;20042;-75
2021/11/26 08:20:32;;;;;;;14.30;5.85;;;4.40;99.90;;;;;;5018185;23;20007;-75
2021/11/26 08:22:33;;;;;;;15.13;6.07;;;4.50;99.90;;;;;;5017903;23;20014;-80
2021/11/26 08:24:34;;;;;;;18.70;6.97;;;4.60;99.90;;;;;;5016414;23;20026;-78
2021/11/26 08:26:35;;;;;;;15.52;7.30;;;4.60;99.90;;;;;;5017515;23;20094;-78
2021/11/26 08:28:36;;;;;;;19.90;7.22;;;4.60;99.90;;;;;;5015798;23;20027;-77
2021/11/26 08:30:38;;;;;;;14.93;5.80;;;4.60;99.90;;;;;;5016618;23;20019;-79
2021/11/26 08:32:40;;;;;;;16.88;5.88;;;4.60;99.90;;;;;;5017915;23;20078;-79
2021/11/26 08:34:41;;;;;;;14.10;5.43;;;4.60;99.90;;;;;;5016349;23;20018;-78
2021/11/26 08:36:42;;;;;;;21.38;6.85;;;4.70;99.90;;;;;;5017459;23;20018;-77
2021/11/26 08:38:44;;;;;;;15.73;7.10;;;4.70;99.90;;;;;;5015722;23;20023;-78
2021/11/26 08:40:45;;;;;;;19.80;6.25;;;4.70;99.90;;;;;;5016683;23;20054;-78
2021/11/26 08:42:46;;;;;;;14.55;6.57;;;4.60;99.90;;;;;;5018489;23;20019;-78
2021/11/26 08:44:47;;;;;;;19.60;7.85;;;4.70;99.90;;;;;;5014905;23;20007;-79
2021/11/26 08:46:47;;;;;;;16.02;6.43;;;4.70;99.90;;;;;;5017485;23;20379;-79
2021/11/26 08:48:50;;;;;;;13.63;6.50;;;4.70;99.90;;;;;;5016344;23;20023;-78
2021/11/26 08:50:50;;;;;;;19.15;6.97;;;4.60;99.90;;;;;;5016910;23;20014;-80
2021/11/26 08:52:51;;;;;;;15.88;6.30;;;4.70;99.90;;;;;;5016208;23;20432;-77
2021/11/26 08:54:52;;;;;;;20.67;6.43;;;4.60;99.90;;;;;;5017179;23;20207;-77
2021/11/26 08:56:55;;;;;;;26.17;9.13;;;4.70;99.90;;;;;;5016526;23;20011;-78
2021/11/26 08:58:56;;;;;;;18.75;6.78;;;4.70;99.90;;;;;;5016008;23;20019;-79
2021/11/26 09:00:57;;;;;;;18.90;7.35;;;4.80;99.90;;;;;;5017045;23;20324;-78
2021/11/26 09:03:01;;;;;;;18.50;7.63;;;4.70;99.90;;;;;;5017156;23;20026;-77
2021/11/26 09:05:02;;;;;;;29.70;8.32;;;4.70;99.90;;;;;;5016282;23;20071;-77
2021/11/26 09:07:03;;;;;;;25.42;9.68;;;4.70;99.90;;;;;;5015526;23;20356;-78
2021/11/26 09:09:05;;;;;;;25.00;8.23;;;4.70;99.90;;;;;;5014096;23;20493;-77
2021/11/26 09:11:05;;;;;;;17.60;7.78;;;4.80;99.90;;;;;;5013403;23;20015;-78
2021/11/26 09:13:06;;;;;;;23.30;9.57;;;4.80;99.90;;;;;;5014417;23;20102;-78
2021/11/26 09:15:09;;;;;;;18.55;7.75;;;4.80;99.90;;;;;;5014916;23;20015;-78
2021/11/26 09:17:10;;;;;;;23.05;8.88;;;4.90;99.90;;;;;;5017997;23;20081;-77
2021/11/26 09:19:11;;;;;;;24.35;9.85;;;4.90;99.90;;;;;;5017169;23;20053;-78
2021/11/26 09:21:12;;;;;;;17.65;6.70;;;4.90;99.90;;;;;;5014773;23;20011;-78
2021/11/26 09:23:13;;;;;;;24.35;9.00;;;5.00;99.90;;;;;;5015262;23;20463;-80
2021/11/26 09:25:15;;;;;;;31.02;9.30;;;5.10;99.90;;;;;;5017165;23;20015;-79
2021/11/26 09:27:16;;;;;;;17.55;8.18;;;5.10;99.90;;;;;;5014754;23;20086;-79
2021/11/26 09:29:16;;;;;;;24.63;7.78;;;5.10;99.90;;;;;;5014534;23;20051;-78
2021/11/26 09:31:17;;;;;;;22.63;8.52;;;5.10;99.90;;;;;;5017002;23;20108;-78
2021/11/26 09:33:19;;;;;;;18.00;8.48;;;5.10;99.90;;;;;;5016200;23;20647;-79
2021/11/26 09:35:20;;;;;;;25.17;9.07;;;5.20;99.90;;;;;;5017070;23;20027;-79
2021/11/26 09:37:21;;;;;;;26.60;9.82;;;5.20;99.90;;;;;;5015944;23;20038;-79
2021/11/26 09:39:21;;;;;;;15.00;7.78;;;5.30;99.90;;;;;;5015501;23;20034;-77
2021/11/26 09:41:22;;;;;;;22.98;9.35;;;5.40;99.90;;;;;;5017253;23;20022;-77
2021/11/26 09:43:23;;;;;;;19.52;8.40;;;5.60;99.90;;;;;;5015592;23;20086;-77
2021/11/26 09:45:26;;;;;;;17.15;7.25;;;5.60;99.90;;;;;;5017897;23;20010;-79
2021/11/26 09:47:28;;;;;;;13.77;7.25;;;5.70;99.90;;;;;;5017854;23;20007;-78
2021/11/26 09:49:30;;;;;;;19.48;7.55;;;5.80;99.90;;;;;;5017652;23;20430;-79
2021/11/26 09:51:31;;;;;;;23.13;8.60;;;5.90;99.90;;;;;;5016672;23;20078;-79
2021/11/26 09:53:33;;;;;;;15.35;6.55;;;6.00;99.90;;;;;;5015556;23;20426;-77
2021/11/26 09:55:34;;;;;;;14.85;6.93;;;6.00;99.90;;;;;;5018025;23;20007;-77
2021/11/26 09:57:35;;;;;;;17.05;6.45;;;6.00;99.90;;;;;;5017192;23;20017;-78
2021/11/26 09:59:39;;;;;;;13.70;6.40;;;6.20;99.90;;;;;;5017767;23;20380;-80
2021/11/26 10:01:40;;;;;;;14.82;7.18;;;6.30;99.90;;;;;;5016493;23;20011;-78
2021/11/26 10:03:49;;;;;;;16.77;6.30;;;6.40;99.90;;;;;;5017732;23;20038;-77
2021/11/26 10:05:50;;;;;;;17.73;6.70;;;6.50;99.90;;;;;;5017512;23;20011;-78
2021/11/26 10:07:53;;;;;;;19.58;5.97;;;6.60;99.90;;;;;;5015624;23;20360;-76
2021/11/26 10:10:04;;;;;;;;;;;6.50;99.90;;;;;;5018231;23;20010;-77
2021/11/26 10:12:14;;;;;;;10.90;4.82;;;6.40;99.90;;;;;;5014911;23;19913;-77
2021/11/26 10:14:21;;;;;;;15.18;5.10;;;6.40;99.90;;;;;;5015054;23;20395;-79
2021/11/26 10:16:22;;;;;;;13.82;6.88;;;6.30;99.90;;;;;;5017301;23;20470;-77
2021/11/26 10:18:27;;;;;;;14.50;6.40;;;6.20;99.90;;;;;;5015178;23;20007;-78
2021/11/26 10:20:28;;;;;;;11.35;5.10;;;6.10;99.90;;;;;;5017596;23;20002;-78
2021/11/26 10:22:36;;;;;;;14.68;6.00;;;6.10;99.90;;;;;;5017099;23;20447;-77
2021/11/26 10:24:37;;;;;;;9.10;5.30;;;6.00;99.90;;;;;;5017091;23;20372;-78
2021/11/26 10:26:39;;;;;;;14.27;6.88;;;6.00;99.90;;;;;;5017760;23;20078;-78
2021/11/26 10:28:44;;;;;;;13.13;4.13;;;6.00;99.90;;;;;;5015330;23;20015;-78
2021/11/26 10:30:48;;;;;;;13.57;5.25;;;6.00;99.90;;;;;;5015374;23;20007;-78
2021/11/26 10:32:59;;;;;;;12.60;5.65;;;5.90;99.90;;;;;;5016526;23;20014;-78
2021/11/26 10:34:59;;;;;;;14.48;5.80;;;5.90;99.90;;;;;;5014799;23;20038;-77
2021/11/26 10:37:00;;;;;;;12.55;6.32;;;5.90;99.90;;;;;;5017062;23;20112;-78